sensor_id;sensor_type;location;lat;lon;timestamp;pressure;altitude;pressure_sealevel;temperature;humidity
62697;BME280;48761;42.680;23.312;2023-02-19T00:00:09;95093.84;;;8.56;51.85
62697;BME280;48761;42.680;23.312;2023-02-19T00:02:35;95116.56;;;8.76;52.32
62697;BME280;48761;42.680;23.312;2023-02-19T00:05:01;95109.81;;;8.70;52.31
62697;BME280;48761;42.680;23.312;2023-02-19T00:07:27;95114.31;;;8.37;53.44
62697;BME280;48761;42.680;23.312;2023-02-19T00:09:53;95089.38;;;8.09;53.28
62697;BME280;48761;42.680;23.312;2023-02-19T00:12:19;95102.03;;;8.20;53.22
62697;BME280;48761;42.680;23.312;2023-02-19T00:14:45;95101.94;;;8.22;53.37
62697;BME280;48761;42.680;23.312;2023-02-19T00:17:11;95103.88;;;8.34;53.29
62697;BME280;48761;42.680;23.312;2023-02-19T00:19:37;95105.66;;;8.50;52.78
62697;BME280;48761;42.680;23.312;2023-02-19T00:22:03;95094.84;;;8.38;52.82
62697;BME280;48761;42.680;23.312;2023-02-19T00:24:29;95100.44;;;8.48;52.77
62697;BME280;48761;42.680;23.312;2023-02-19T00:26:55;95101.66;;;8.59;52.52
62697;BME280;48761;42.680;23.312;2023-02-19T00:29:21;95081.63;;;8.53;52.42
62697;BME280;48761;42.680;23.312;2023-02-19T00:31:47;95080.63;;;8.39;53.08
62697;BME280;48761;42.680;23.312;2023-02-19T00:34:15;95063.94;;;8.06;53.36
62697;BME280;48761;42.680;23.312;2023-02-19T00:36:42;95100.13;;;8.38;53.07
62697;BME280;48761;42.680;23.312;2023-02-19T00:39:12;95091.25;;;8.07;53.84
62697;BME280;48761;42.680;23.312;2023-02-19T00:41:38;95084.41;;;8.19;53.61
62697;BME280;48761;42.680;23.312;2023-02-19T00:44:06;95086.56;;;8.12;54.17
62697;BME280;48761;42.680;23.312;2023-02-19T00:46:35;95079.75;;;7.92;54.64
62697;BME280;48761;42.680;23.312;2023-02-19T00:49:02;95059.59;;;8.05;54.01
62697;BME280;48761;42.680;23.312;2023-02-19T00:51:32;95061.03;;;8.11;54.19
62697;BME280;48761;42.680;23.312;2023-02-19T00:53:59;95061.03;;;8.11;54.05
62697;BME280;48761;42.680;23.312;2023-02-19T00:56:25;95041.50;;;7.98;54.17
62697;BME280;48761;42.680;23.312;2023-02-19T00:58:51;95065.22;;;8.15;54.46
62697;BME280;48761;42.680;23.312;2023-02-19T01:01:18;95061.44;;;8.19;54.01
62697;BME280;48761;42.680;23.312;2023-02-19T01:03:44;95071.75;;;8.24;53.90
62697;BME280;48761;42.680;23.312;2023-02-19T01:06:13;95068.03;;;8.12;53.98
62697;BME280;48761;42.680;23.312;2023-02-19T01:08:40;95073.84;;;8.03;54.31
62697;BME280;48761;42.680;23.312;2023-02-19T01:11:07;95049.16;;;8.02;54.24
62697;BME280;48761;42.680;23.312;2023-02-19T01:13:34;95058.31;;;8.13;54.15
62697;BME280;48761;42.680;23.312;2023-02-19T01:16:13;95063.00;;;7.59;55.62
62697;BME280;48761;42.680;23.312;2023-02-19T01:18:40;95043.03;;;7.37;56.04
62697;BME280;48761;42.680;23.312;2023-02-19T01:21:08;95059.75;;;7.03;57.22
62697;BME280;48761;42.680;23.312;2023-02-19T01:23:36;95046.56;;;6.86;57.51
62697;BME280;48761;42.680;23.312;2023-02-19T01:26:07;95065.00;;;6.87;57.61
62697;BME280;48761;42.680;23.312;2023-02-19T01:28:34;95079.28;;;7.35;56.28
62697;BME280;48761;42.680;23.312;2023-02-19T01:31:04;95065.16;;;7.18;56.54
62697;BME280;48761;42.680;23.312;2023-02-19T01:33:30;95045.28;;;7.11;56.85
62697;BME280;48761;42.680;23.312;2023-02-19T01:35:56;95075.53;;;7.39;56.59
62697;BME280;48761;42.680;23.312;2023-02-19T01:38:22;95074.53;;;7.58;55.99
62697;BME280;48761;42.680;23.312;2023-02-19T01:41:02;95074.03;;;7.67;55.69
62697;BME280;48761;42.680;23.312;2023-02-19T01:43:31;95084.09;;;7.77;55.37
62697;BME280;48761;42.680;23.312;2023-02-19T01:46:00;95103.81;;;7.87;54.93
62697;BME280;48761;42.680;23.312;2023-02-19T01:48:49;95049.78;;;7.43;55.02
62697;BME280;48761;42.680;23.312;2023-02-19T01:51:43;95087.34;;;7.66;55.30
62697;BME280;48761;42.680;23.312;2023-02-19T01:54:22;95090.25;;;7.77;55.48
62697;BME280;48761;42.680;23.312;2023-02-19T01:56:50;95075.31;;;7.60;55.33
62697;BME280;48761;42.680;23.312;2023-02-19T01:59:17;95077.44;;;7.69;55.52
62697;BME280;48761;42.680;23.312;2023-02-19T02:01:43;95093.00;;;7.76;55.20
62697;BME280;48761;42.680;23.312;2023-02-19T02:04:11;95086.97;;;7.39;55.77
62697;BME280;48761;42.680;23.312;2023-02-19T02:06:46;95094.00;;;7.57;56.00
62697;BME280;48761;42.680;23.312;2023-02-19T02:09:13;95059.81;;;7.36;55.61
62697;BME280;48761;42.680;23.312;2023-02-19T02:11:47;95045.66;;;7.37;55.13
62697;BME280;48761;42.680;23.312;2023-02-19T02:14:15;95079.81;;;7.08;56.53
62697;BME280;48761;42.680;23.312;2023-02-19T02:19:41;95100.09;;;7.25;56.70
62697;BME280;48761;42.680;23.312;2023-02-19T02:30:53;95110.13;;;7.00;57.56
62697;BME280;48761;42.680;23.312;2023-02-19T02:33:40;95092.84;;;7.11;56.84
62697;BME280;48761;42.680;23.312;2023-02-19T02:38:44;95101.16;;;6.87;57.31
62697;BME280;48761;42.680;23.312;2023-02-19T02:41:12;95116.22;;;7.02;57.08
62697;BME280;48761;42.680;23.312;2023-02-19T02:43:40;95118.84;;;7.20;56.49
62697;BME280;48761;42.680;23.312;2023-02-19T02:46:09;95109.91;;;7.39;56.14
62697;BME280;48761;42.680;23.312;2023-02-19T02:48:45;95110.25;;;7.33;56.38
62697;BME280;48761;42.680;23.312;2023-02-19T02:53:55;95119.53;;;7.58;55.92
62697;BME280;48761;42.680;23.312;2023-02-19T02:56:23;95098.41;;;7.56;56.02
62697;BME280;48761;42.680;23.312;2023-02-19T02:58:50;95100.34;;;7.70;55.60
62697;BME280;48761;42.680;23.312;2023-02-19T03:01:24;95098.63;;;7.69;55.81
62697;BME280;48761;42.680;23.312;2023-02-19T03:04:03;95103.22;;;7.66;55.46
62697;BME280;48761;42.680;23.312;2023-02-19T03:06:32;95096.78;;;7.54;55.50
62697;BME280;48761;42.680;23.312;2023-02-19T03:09:13;95102.22;;;7.68;55.75
62697;BME280;48761;42.680;23.312;2023-02-19T03:11:44;95092.72;;;7.64;55.07
62697;BME280;48761;42.680;23.312;2023-02-19T03:14:17;95098.97;;;7.63;55.14
62697;BME280;48761;42.680;23.312;2023-02-19T03:16:47;95104.19;;;7.81;55.17
62697;BME280;48761;42.680;23.312;2023-02-19T03:19:16;95098.97;;;7.79;55.30
62697;BME280;48761;42.680;23.312;2023-02-19T03:22:00;95108.69;;;7.79;54.93
62697;BME280;48761;42.680;23.312;2023-02-19T03:24:31;95122.22;;;7.40;56.04
62697;BME280;48761;42.680;23.312;2023-02-19T03:27:01;95117.47;;;7.29;56.46
62697;BME280;48761;42.680;23.312;2023-02-19T03:29:30;95142.41;;;7.41;56.11
62697;BME280;48761;42.680;23.312;2023-02-19T03:32:00;95144.44;;;7.36;56.32
62697;BME280;48761;42.680;23.312;2023-02-19T03:34:36;95142.16;;;7.12;56.83
62697;BME280;48761;42.680;23.312;2023-02-19T03:37:31;95153.66;;;7.11;56.98
62697;BME280;48761;42.680;23.312;2023-02-19T03:39:54;95148.06;;;7.35;56.68
62697;BME280;48761;42.680;23.312;2023-02-19T03:42:55;95106.06;;;7.11;56.79
62697;BME280;48761;42.680;23.312;2023-02-19T03:50:47;95145.38;;;7.53;56.28
62697;BME280;48761;42.680;23.312;2023-02-19T03:54:12;95142.13;;;7.47;56.21
62697;BME280;48761;42.680;23.312;2023-02-19T03:57:35;95157.47;;;7.40;56.29
62697;BME280;48761;42.680;23.312;2023-02-19T04:02:06;95169.06;;;7.38;56.27
62697;BME280;48761;42.680;23.312;2023-02-19T04:04:42;95169.34;;;7.49;55.90
62697;BME280;48761;42.680;23.312;2023-02-19T04:07:10;95175.00;;;7.25;56.17
62697;BME280;48761;42.680;23.312;2023-02-19T04:09:39;95161.44;;;7.14;56.48
62697;BME280;48761;42.680;23.312;2023-02-19T04:12:06;95159.53;;;7.00;57.27
62697;BME280;48761;42.680;23.312;2023-02-19T04:14:40;95167.84;;;7.10;56.84
62697;BME280;48761;42.680;23.312;2023-02-19T04:17:14;95171.72;;;7.20;56.78
62697;BME280;48761;42.680;23.312;2023-02-19T04:19:42;95177.00;;;7.20;56.74
62697;BME280;48761;42.680;23.312;2023-02-19T04:22:08;95172.94;;;7.31;55.97
62697;BME280;48761;42.680;23.312;2023-02-19T04:24:43;95171.38;;;7.26;56.02
62697;BME280;48761;42.680;23.312;2023-02-19T04:27:11;95177.16;;;7.35;56.13
62697;BME280;48761;42.680;23.312;2023-02-19T04:29:37;95181.31;;;7.39;55.81
62697;BME280;48761;42.680;23.312;2023-02-19T04:32:03;95172.94;;;7.31;55.87
62697;BME280;48761;42.680;23.312;2023-02-19T04:34:29;95175.28;;;7.19;56.04
62697;BME280;48761;42.680;23.312;2023-02-19T04:36:56;95164.72;;;7.19;56.17
62697;BME280;48761;42.680;23.312;2023-02-19T04:39:22;95178.84;;;7.18;56.03
62697;BME280;48761;42.680;23.312;2023-02-19T04:41:48;95172.78;;;7.16;55.98
62697;BME280;48761;42.680;23.312;2023-02-19T04:44:14;95172.16;;;7.11;56.48
62697;BME280;48761;42.680;23.312;2023-02-19T04:46:40;95179.72;;;7.18;56.09
62697;BME280;48761;42.680;23.312;2023-02-19T04:49:06;95189.53;;;7.16;56.22
62697;BME280;48761;42.680;23.312;2023-02-19T04:51:32;95180.72;;;7.16;56.50
62697;BME280;48761;42.680;23.312;2023-02-19T04:53:58;95185.47;;;7.09;56.38
62697;BME280;48761;42.680;23.312;2023-02-19T04:56:24;95153.84;;;6.90;56.53
62697;BME280;48761;42.680;23.312;2023-02-19T04:58:50;95185.34;;;7.12;56.77
62697;BME280;48761;42.680;23.312;2023-02-19T05:01:16;95149.34;;;6.92;56.78
62697;BME280;48761;42.680;23.312;2023-02-19T05:03:42;95172.03;;;7.14;56.34
62697;BME280;48761;42.680;23.312;2023-02-19T05:06:11;95185.78;;;7.21;56.63
62697;BME280;48761;42.680;23.312;2023-02-19T05:08:38;95174.81;;;7.11;56.42
62697;BME280;48761;42.680;23.312;2023-02-19T05:11:06;95181.22;;;7.06;56.84
62697;BME280;48761;42.680;23.312;2023-02-19T05:13:32;95186.59;;;7.05;56.63
62697;BME280;48761;42.680;23.312;2023-02-19T05:16:16;95201.19;;;6.57;58.06
62697;BME280;48761;42.680;23.312;2023-02-19T05:18:44;95196.50;;;6.08;60.02
62697;BME280;48761;42.680;23.312;2023-02-19T05:21:11;95189.56;;;6.24;59.69
62697;BME280;48761;42.680;23.312;2023-02-19T05:23:37;95197.84;;;6.36;59.28
62697;BME280;48761;42.680;23.312;2023-02-19T05:26:07;95199.28;;;6.24;59.41
62697;BME280;48761;42.680;23.312;2023-02-19T05:28:33;95196.81;;;6.38;59.25
62697;BME280;48761;42.680;23.312;2023-02-19T05:31:03;95209.47;;;6.69;58.78
62697;BME280;48761;42.680;23.312;2023-02-19T05:33:29;95199.00;;;6.67;58.67
62697;BME280;48761;42.680;23.312;2023-02-19T05:35:55;95182.91;;;6.72;57.71
62697;BME280;48761;42.680;23.312;2023-02-19T05:38:22;95213.06;;;7.03;57.85
62697;BME280;48761;42.680;23.312;2023-02-19T05:40:49;95213.41;;;6.97;57.59
62697;BME280;48761;42.680;23.312;2023-02-19T05:43:15;95209.88;;;6.79;58.11
62697;BME280;48761;42.680;23.312;2023-02-19T05:45:41;95210.88;;;6.76;58.43
62697;BME280;48761;42.680;23.312;2023-02-19T05:48:09;95222.25;;;6.96;57.95
62697;BME280;48761;42.680;23.312;2023-02-19T05:50:35;95212.53;;;7.14;57.33
62697;BME280;48761;42.680;23.312;2023-02-19T05:53:02;95217.44;;;7.22;57.52
62697;BME280;48761;42.680;23.312;2023-02-19T05:55:33;95219.53;;;7.33;57.47
62697;BME280;48761;42.680;23.312;2023-02-19T05:57:59;95222.25;;;7.49;57.05
62697;BME280;48761;42.680;23.312;2023-02-19T06:00:25;95229.25;;;7.84;56.04
62697;BME280;48761;42.680;23.312;2023-02-19T06:02:52;95206.19;;;7.87;55.64
62697;BME280;48761;42.680;23.312;2023-02-19T06:05:18;95232.06;;;8.15;56.04
62697;BME280;48761;42.680;23.312;2023-02-19T06:07:44;95225.34;;;8.58;54.72
62697;BME280;48761;42.680;23.312;2023-02-19T06:10:11;95242.66;;;8.96;53.78
62697;BME280;48761;42.680;23.312;2023-02-19T06:12:37;95244.34;;;9.14;53.26
62697;BME280;48761;42.680;23.312;2023-02-19T06:15:05;95233.56;;;9.17;52.94
62697;BME280;48761;42.680;23.312;2023-02-19T06:17:32;95228.91;;;9.21;52.79
62697;BME280;48761;42.680;23.312;2023-02-19T06:19:59;95219.16;;;9.21;52.14
62697;BME280;48761;42.680;23.312;2023-02-19T06:22:25;95224.28;;;9.24;52.16
62697;BME280;48761;42.680;23.312;2023-02-19T06:24:52;95258.09;;;9.51;51.57
62697;BME280;48761;42.680;23.312;2023-02-19T06:27:18;95261.69;;;9.50;51.81
62697;BME280;48761;42.680;23.312;2023-02-19T06:29:43;95237.41;;;9.42;51.71
62697;BME280;48761;42.680;23.312;2023-02-19T06:32:10;95220.16;;;9.35;51.37
62697;BME280;48761;42.680;23.312;2023-02-19T06:34:36;95204.72;;;9.11;51.45
62697;BME280;48761;42.680;23.312;2023-02-19T06:37:05;95226.97;;;9.39;51.54
62697;BME280;48761;42.680;23.312;2023-02-19T06:39:31;95265.25;;;9.66;51.04
62697;BME280;48761;42.680;23.312;2023-02-19T06:41:57;95216.59;;;9.65;51.08
62697;BME280;48761;42.680;23.312;2023-02-19T06:44:24;95254.94;;;10.05;50.83
62697;BME280;48761;42.680;23.312;2023-02-19T06:46:50;95247.13;;;10.16;50.71
62697;BME280;48761;42.680;23.312;2023-02-19T06:49:16;95243.53;;;10.32;50.82
62697;BME280;48761;42.680;23.312;2023-02-19T06:51:42;95258.63;;;10.46;50.12
62697;BME280;48761;42.680;23.312;2023-02-19T06:54:08;95257.38;;;10.52;49.94
62697;BME280;48761;42.680;23.312;2023-02-19T06:56:36;95231.78;;;10.79;49.64
62697;BME280;48761;42.680;23.312;2023-02-19T06:59:05;95259.19;;;11.21;48.75
62697;BME280;48761;42.680;23.312;2023-02-19T07:01:33;95247.81;;;10.92;48.38
62697;BME280;48761;42.680;23.312;2023-02-19T07:03:59;95268.03;;;10.94;48.44
62697;BME280;48761;42.680;23.312;2023-02-19T07:06:26;95270.59;;;10.96;48.47
62697;BME280;48761;42.680;23.312;2023-02-19T07:08:54;95269.81;;;11.21;48.44
62697;BME280;48761;42.680;23.312;2023-02-19T07:11:20;95271.28;;;11.13;47.50
62697;BME280;48761;42.680;23.312;2023-02-19T07:13:46;95257.94;;;11.27;47.05
62697;BME280;48761;42.680;23.312;2023-02-19T07:16:12;95279.72;;;11.73;46.41
62697;BME280;48761;42.680;23.312;2023-02-19T07:18:39;95249.16;;;11.79;46.42
62697;BME280;48761;42.680;23.312;2023-02-19T07:21:11;95269.75;;;12.42;45.54
62697;BME280;48761;42.680;23.312;2023-02-19T07:23:37;95255.19;;;12.60;44.86
62697;BME280;48761;42.680;23.312;2023-02-19T07:26:06;95255.22;;;12.84;44.14
62697;BME280;48761;42.680;23.312;2023-02-19T07:28:33;95248.78;;;12.62;43.97
62697;BME280;48761;42.680;23.312;2023-02-19T07:31:00;95248.94;;;12.85;44.21
62697;BME280;48761;42.680;23.312;2023-02-19T07:33:26;95242.09;;;12.94;43.50
62697;BME280;48761;42.680;23.312;2023-02-19T07:35:52;95233.81;;;12.73;44.38
62697;BME280;48761;42.680;23.312;2023-02-19T07:38:20;95222.34;;;12.59;44.23
62697;BME280;48761;42.680;23.312;2023-02-19T07:40:56;95239.97;;;13.11;43.35
62697;BME280;48761;42.680;23.312;2023-02-19T07:43:24;95237.38;;;12.98;43.40
62697;BME280;48761;42.680;23.312;2023-02-19T07:45:51;95236.63;;;13.20;43.24
62697;BME280;48761;42.680;23.312;2023-02-19T07:48:17;95246.91;;;13.14;43.21
62697;BME280;48761;42.680;23.312;2023-02-19T07:50:54;95208.56;;;12.90;43.44
62697;BME280;48761;42.680;23.312;2023-02-19T07:53:21;95238.16;;;13.11;43.35
62697;BME280;48761;42.680;23.312;2023-02-19T07:55:48;95223.84;;;13.13;43.37
62697;BME280;48761;42.680;23.312;2023-02-19T07:58:14;95233.69;;;13.48;42.90
62697;BME280;48761;42.680;23.312;2023-02-19T08:00:40;95232.56;;;13.64;42.77
62697;BME280;48761;42.680;23.312;2023-02-19T08:03:06;95232.78;;;13.61;42.76
62697;BME280;48761;42.680;23.312;2023-02-19T08:05:36;95236.75;;;14.03;42.05
62697;BME280;48761;42.680;23.312;2023-02-19T08:08:05;95226.44;;;14.09;41.83
62697;BME280;48761;42.680;23.312;2023-02-19T08:10:31;95197.25;;;14.06;41.75
62697;BME280;48761;42.680;23.312;2023-02-19T08:12:58;95227.41;;;14.20;41.90
62697;BME280;48761;42.680;23.312;2023-02-19T08:15:26;95237.75;;;14.25;41.64
62697;BME280;48761;42.680;23.312;2023-02-19T08:17:51;95224.38;;;14.48;41.31
62697;BME280;48761;42.680;23.312;2023-02-19T08:20:17;95212.91;;;14.57;41.25
62697;BME280;48761;42.680;23.312;2023-02-19T08:22:43;95204.91;;;14.57;40.87
62697;BME280;48761;42.680;23.312;2023-02-19T08:25:09;95223.63;;;14.68;40.53
62697;BME280;48761;42.680;23.312;2023-02-19T08:27:35;95220.19;;;14.78;40.52
62697;BME280;48761;42.680;23.312;2023-02-19T08:30:01;95202.94;;;14.71;40.43
62697;BME280;48761;42.680;23.312;2023-02-19T08:32:27;95221.66;;;14.94;40.45
62697;BME280;48761;42.680;23.312;2023-02-19T08:34:53;95215.06;;;14.98;39.68
62697;BME280;48761;42.680;23.312;2023-02-19T08:37:19;95224.34;;;15.27;39.72
62697;BME280;48761;42.680;23.312;2023-02-19T08:39:45;95229.72;;;15.48;39.27
62697;BME280;48761;42.680;23.312;2023-02-19T08:42:11;95203.72;;;15.39;39.06
62697;BME280;48761;42.680;23.312;2023-02-19T08:44:37;95193.22;;;15.47;38.72
62697;BME280;48761;42.680;23.312;2023-02-19T08:47:03;95206.34;;;15.72;38.21
62697;BME280;48761;42.680;23.312;2023-02-19T08:49:29;95190.84;;;15.54;37.92
62697;BME280;48761;42.680;23.312;2023-02-19T08:51:55;95194.75;;;15.50;38.41
62697;BME280;48761;42.680;23.312;2023-02-19T08:54:21;95206.44;;;15.70;38.27
62697;BME280;48761;42.680;23.312;2023-02-19T08:56:47;95198.16;;;16.26;37.64
62697;BME280;48761;42.680;23.312;2023-02-19T08:59:13;95199.75;;;16.80;37.17
62697;BME280;48761;42.680;23.312;2023-02-19T09:01:39;95201.88;;;16.86;36.30
62697;BME280;48761;42.680;23.312;2023-02-19T09:04:16;95161.31;;;16.69;37.25
62697;BME280;48761;42.680;23.312;2023-02-19T09:06:42;95188.72;;;16.63;37.36
62697;BME280;48761;42.680;23.312;2023-02-19T09:09:08;95185.81;;;16.45;37.54
62697;BME280;48761;42.680;23.312;2023-02-19T09:11:34;95174.13;;;16.15;38.05
62697;BME280;48761;42.680;23.312;2023-02-19T09:14:06;95180.38;;;16.15;37.82
62697;BME280;48761;42.680;23.312;2023-02-19T09:16:36;95160.78;;;16.24;37.88
62697;BME280;48761;42.680;23.312;2023-02-19T09:19:03;95151.06;;;16.43;37.43
62697;BME280;48761;42.680;23.312;2023-02-19T09:21:29;95174.19;;;16.76;37.45
62697;BME280;48761;42.680;23.312;2023-02-19T09:23:55;95135.25;;;16.30;37.76
62697;BME280;48761;42.680;23.312;2023-02-19T09:26:21;95165.28;;;16.75;37.66
62697;BME280;48761;42.680;23.312;2023-02-19T09:28:47;95164.16;;;16.78;37.79
62697;BME280;48761;42.680;23.312;2023-02-19T09:31:25;95157.66;;;16.71;37.90
62697;BME280;48761;42.680;23.312;2023-02-19T09:33:53;95151.94;;;16.44;38.57
62697;BME280;48761;42.680;23.312;2023-02-19T09:36:19;95150.22;;;16.33;38.55
62697;BME280;48761;42.680;23.312;2023-02-19T09:38:45;95159.91;;;16.65;38.64
62697;BME280;48761;42.680;23.312;2023-02-19T09:43:51;95139.59;;;17.12;37.96
62697;BME280;48761;42.680;23.312;2023-02-19T09:46:30;95150.91;;;16.96;38.02
62697;BME280;48761;42.680;23.312;2023-02-19T09:51:52;95131.69;;;17.01;36.95
62697;BME280;48761;42.680;23.312;2023-02-19T09:54:29;95129.97;;;16.90;36.79
62697;BME280;48761;42.680;23.312;2023-02-19T09:57:02;95158.84;;;17.18;36.71
62697;BME280;48761;42.680;23.312;2023-02-19T09:59:37;95140.72;;;17.40;42.88
62697;BME280;48761;42.680;23.312;2023-02-19T10:02:15;95133.41;;;17.42;40.81
62697;BME280;48761;42.680;23.312;2023-02-19T10:04:43;95122.31;;;17.55;36.28
62697;BME280;48761;42.680;23.312;2023-02-19T10:07:15;95116.59;;;17.78;38.50
62697;BME280;48761;42.680;23.312;2023-02-19T10:09:45;95103.59;;;17.73;35.64
62697;BME280;48761;42.680;23.312;2023-02-19T10:12:16;95092.91;;;17.53;34.82
62697;BME280;48761;42.680;23.312;2023-02-19T10:14:49;95075.97;;;17.43;35.25
62697;BME280;48761;42.680;23.312;2023-02-19T10:17:32;95052.22;;;17.38;35.79
62697;BME280;48761;42.680;23.312;2023-02-19T10:19:58;95091.50;;;17.87;36.27
62697;BME280;48761;42.680;23.312;2023-02-19T10:22:25;95086.59;;;17.83;35.73
62697;BME280;48761;42.680;23.312;2023-02-19T10:24:53;95064.03;;;17.55;35.01
62697;BME280;48761;42.680;23.312;2023-02-19T10:27:25;95058.91;;;17.62;34.56
62697;BME280;48761;42.680;23.312;2023-02-19T10:29:52;95070.78;;;17.79;34.66
62697;BME280;48761;42.680;23.312;2023-02-19T10:32:23;95062.66;;;17.89;34.30
62697;BME280;48761;42.680;23.312;2023-02-19T10:37:34;95055.91;;;17.75;34.33
62697;BME280;48761;42.680;23.312;2023-02-19T10:40:00;95040.00;;;17.92;34.30
62697;BME280;48761;42.680;23.312;2023-02-19T10:42:33;95017.00;;;17.79;40.59
62697;BME280;48761;42.680;23.312;2023-02-19T10:45:20;94985.81;;;17.58;35.04
62697;BME280;48761;42.680;23.312;2023-02-19T10:47:48;94994.38;;;17.72;34.88
62697;BME280;48761;42.680;23.312;2023-02-19T10:50:38;95016.69;;;17.83;34.79
62697;BME280;48761;42.680;23.312;2023-02-19T10:53:04;94998.47;;;18.04;34.64
62697;BME280;48761;42.680;23.312;2023-02-19T10:55:36;94973.19;;;17.97;34.33
62697;BME280;48761;42.680;23.312;2023-02-19T10:58:22;94935.22;;;17.16;34.45
62697;BME280;48761;42.680;23.312;2023-02-19T11:01:08;94991.41;;;17.75;35.48
62697;BME280;48761;42.680;23.312;2023-02-19T11:03:34;95000.25;;;17.86;35.12
62697;BME280;48761;42.680;23.312;2023-02-19T11:06:03;94964.44;;;17.67;37.81
62697;BME280;48761;42.680;23.312;2023-02-19T11:08:33;94976.38;;;17.54;34.49
62697;BME280;48761;42.680;23.312;2023-02-19T11:11:03;94952.56;;;17.59;34.50
62697;BME280;48761;42.680;23.312;2023-02-19T11:13:30;94982.34;;;17.76;35.41
62697;BME280;48761;42.680;23.312;2023-02-19T11:15:57;94971.78;;;17.65;35.35
62697;BME280;48761;42.680;23.312;2023-02-19T11:18:31;94943.63;;;17.41;34.35
62697;BME280;48761;42.680;23.312;2023-02-19T11:21:05;94886.00;;;17.25;34.66
62697;BME280;48761;42.680;23.312;2023-02-19T11:23:52;94955.50;;;17.95;34.24
62697;BME280;48761;42.680;23.312;2023-02-19T11:26:23;94956.31;;;17.95;34.21
62697;BME280;48761;42.680;23.312;2023-02-19T11:28:59;94910.84;;;17.84;33.30
62697;BME280;48761;42.680;23.312;2023-02-19T11:31:37;94939.84;;;18.08;33.34
62697;BME280;48761;42.680;23.312;2023-02-19T11:36:43;94927.91;;;18.11;32.89
62697;BME280;48761;42.680;23.312;2023-02-19T11:39:18;94928.81;;;18.30;32.98
62697;BME280;48761;42.680;23.312;2023-02-19T11:42:10;94934.09;;;18.21;33.33
62697;BME280;48761;42.680;23.312;2023-02-19T12:21:05;94857.66;;;18.51;31.42
62697;BME280;48761;42.680;23.312;2023-02-19T12:29:14;94843.09;;;18.35;31.80
62697;BME280;48761;42.680;23.312;2023-02-19T12:35:57;94842.47;;;18.41;32.28
62697;BME280;48761;42.680;23.312;2023-02-19T12:38:20;94830.22;;;18.47;33.83
62697;BME280;48761;42.680;23.312;2023-02-19T12:41:17;94825.91;;;18.28;30.94
62697;BME280;48761;42.680;23.312;2023-02-19T12:44:00;94816.03;;;18.18;31.04
62697;BME280;48761;42.680;23.312;2023-02-19T12:46:57;94813.59;;;18.07;31.02
62697;BME280;48761;42.680;23.312;2023-02-19T12:49:30;94808.97;;;18.17;33.78
62697;BME280;48761;42.680;23.312;2023-02-19T12:52:10;94767.66;;;18.00;33.35
62697;BME280;48761;42.680;23.312;2023-02-19T12:54:40;94796.50;;;18.16;32.11
62697;BME280;48761;42.680;23.312;2023-02-19T12:57:33;94787.47;;;18.17;32.01
62697;BME280;48761;42.680;23.312;2023-02-19T13:03:04;94784.00;;;18.07;33.22
62697;BME280;48761;42.680;23.312;2023-02-19T13:05:45;94785.53;;;18.09;35.54
62697;BME280;48761;42.680;23.312;2023-02-19T13:11:42;94766.41;;;18.12;33.73
62697;BME280;48761;42.680;23.312;2023-02-19T13:16:40;94753.13;;;17.92;33.37
62697;BME280;48761;42.680;23.312;2023-02-19T13:19:08;94760.41;;;18.00;34.53
62697;BME280;48761;42.680;23.312;2023-02-19T13:21:35;94749.75;;;18.09;34.25
62697;BME280;48761;42.680;23.312;2023-02-19T13:24:06;94744.72;;;18.14;33.67
62697;BME280;48761;42.680;23.312;2023-02-19T13:26:40;94748.75;;;18.10;34.06
62697;BME280;48761;42.680;23.312;2023-02-19T13:35:04;94735.13;;;17.85;32.54
62697;BME280;48761;42.680;23.312;2023-02-19T13:37:35;94733.50;;;17.92;32.04
62697;BME280;48761;42.680;23.312;2023-02-19T13:40:19;94724.38;;;17.85;32.19
62697;BME280;48761;42.680;23.312;2023-02-19T13:42:55;94726.22;;;17.84;32.45
62697;BME280;48761;42.680;23.312;2023-02-19T13:45:42;94710.47;;;17.71;32.06
62697;BME280;48761;42.680;23.312;2023-02-19T13:48:32;94721.91;;;17.73;32.33
62697;BME280;48761;42.680;23.312;2023-02-19T13:59:01;94706.44;;;17.30;32.89
62697;BME280;48761;42.680;23.312;2023-02-19T14:14:36;94698.19;;;17.13;33.45
62697;BME280;48761;42.680;23.312;2023-02-19T14:28:29;94662.50;;;17.03;33.17
62697;BME280;48761;42.680;23.312;2023-02-19T14:30:59;94669.25;;;17.07;33.61
62697;BME280;48761;42.680;23.312;2023-02-19T14:33:35;94666.94;;;17.12;33.86
62697;BME280;48761;42.680;23.312;2023-02-19T14:38:55;94669.94;;;17.09;33.91
62697;BME280;48761;42.680;23.312;2023-02-19T14:41:22;94675.69;;;17.14;33.55
62697;BME280;48761;42.680;23.312;2023-02-19T14:43:51;94648.06;;;17.04;33.42
62697;BME280;48761;42.680;23.312;2023-02-19T14:46:31;94668.34;;;17.17;33.31
62697;BME280;48761;42.680;23.312;2023-02-19T14:49:24;94664.94;;;17.14;33.43
62697;BME280;48761;42.680;23.312;2023-02-19T14:52:02;94665.97;;;17.13;33.51
62697;BME280;48761;42.680;23.312;2023-02-19T14:57:02;94657.63;;;17.17;33.32
62697;BME280;48761;42.680;23.312;2023-02-19T14:59:29;94654.22;;;17.14;33.55
62697;BME280;48761;42.680;23.312;2023-02-19T15:02:02;94654.53;;;17.11;33.82
62697;BME280;48761;42.680;23.312;2023-02-19T15:04:34;94654.69;;;17.10;33.84
62697;BME280;48761;42.680;23.312;2023-02-19T15:07:06;94627.00;;;16.91;34.03
62697;BME280;48761;42.680;23.312;2023-02-19T15:09:38;94655.44;;;17.02;34.10
62697;BME280;48761;42.680;23.312;2023-02-19T15:12:06;94650.16;;;16.92;34.44
62697;BME280;48761;42.680;23.312;2023-02-19T15:14:38;94657.34;;;16.91;34.37
62697;BME280;48761;42.680;23.312;2023-02-19T15:17:05;94619.00;;;16.63;34.73
62697;BME280;48761;42.680;23.312;2023-02-19T15:19:33;94658.25;;;16.82;34.85
62697;BME280;48761;42.680;23.312;2023-02-19T15:22:00;94655.06;;;16.78;34.73
62697;BME280;48761;42.680;23.312;2023-02-19T15:24:26;94660.03;;;16.73;34.99